Terminal Aerodrome Forecast
Issued by NWS

Home | Current Version | Previous Version | Text Only | Print | Product List | Glossary On
Versions: 1 2 3 4 5 6 7 8 9 10 11 12 13 14 15 16 17 18 19 20 21 22 23 24 25 26 27 28 29 30 31 32 33 34 35 36 37 38 39
000
FTUS41 KBOX 011728
TAFBAF
TAF
KBAF 011728Z 0118/0218 28009KT P6SM VCSH BKN060
     FM012000 29009KT P6SM SCT060
     FM020000 31005KT P6SM FEW080
     FM021400 23004KT P6SM SKC
     FM021700 23008KT P6SM SKC=

USA.gov is the U.S. government's official web portal to all federal, state and local government web resources and services.